sensor_id;sensor_type;location;lat;lon;timestamp;P1;durP1;ratioP1;P2;durP2;ratioP2
35961;SDS011;22044;48.298;10.008;2023-09-08T00:02:19;9.77;;;8.77;;
35961;SDS011;22044;48.298;10.008;2023-09-08T00:05:05;11.87;;;8.70;;
35961;SDS011;22044;48.298;10.008;2023-09-08T00:07:52;10.80;;;8.67;;
35961;SDS011;22044;48.298;10.008;2023-09-08T00:10:37;9.80;;;8.90;;
35961;SDS011;22044;48.298;10.008;2023-09-08T00:13:23;10.63;;;9.33;;
35961;SDS011;22044;48.298;10.008;2023-09-08T00:16:08;10.87;;;9.73;;
35961;SDS011;22044;48.298;10.008;2023-09-08T00:18:54;11.10;;;9.90;;
35961;SDS011;22044;48.298;10.008;2023-09-08T00:21:41;10.97;;;9.87;;
35961;SDS011;22044;48.298;10.008;2023-09-08T00:24:28;11.63;;;9.40;;
35961;SDS011;22044;48.298;10.008;2023-09-08T00:27:13;9.97;;;8.97;;
35961;SDS011;22044;48.298;10.008;2023-09-08T00:29:59;9.93;;;9.05;;
35961;SDS011;22044;48.298;10.008;2023-09-08T00:32:45;10.87;;;9.00;;
35961;SDS011;22044;48.298;10.008;2023-09-08T00:35:31;13.23;;;7.87;;
35961;SDS011;22044;48.298;10.008;2023-09-08T00:38:17;7.97;;;7.17;;
35961;SDS011;22044;48.298;10.008;2023-09-08T00:41:05;9.30;;;7.50;;
35961;SDS011;22044;48.298;10.008;2023-09-08T00:43:50;10.57;;;7.50;;
35961;SDS011;22044;48.298;10.008;2023-09-08T00:46:36;8.20;;;7.40;;
35961;SDS011;22044;48.298;10.008;2023-09-08T00:49:21;8.97;;;8.07;;
35961;SDS011;22044;48.298;10.008;2023-09-08T00:52:07;9.17;;;8.30;;
35961;SDS011;22044;48.298;10.008;2023-09-08T00:54:52;9.23;;;8.30;;
35961;SDS011;22044;48.298;10.008;2023-09-08T00:57:40;10.07;;;7.70;;
35961;SDS011;22044;48.298;10.008;2023-09-08T01:00:26;9.83;;;8.67;;
35961;SDS011;22044;48.298;10.008;2023-09-08T01:03:12;9.77;;;8.43;;
35961;SDS011;22044;48.298;10.008;2023-09-08T01:05:57;11.80;;;8.83;;
35961;SDS011;22044;48.298;10.008;2023-09-08T01:08:43;9.73;;;8.60;;
35961;SDS011;22044;48.298;10.008;2023-09-08T01:11:30;11.97;;;8.23;;
35961;SDS011;22044;48.298;10.008;2023-09-08T01:14:18;8.33;;;7.53;;
35961;SDS011;22044;48.298;10.008;2023-09-08T01:17:04;8.07;;;7.20;;
35961;SDS011;22044;48.298;10.008;2023-09-08T01:19:49;8.53;;;7.57;;
35961;SDS011;22044;48.298;10.008;2023-09-08T01:25:48;9.03;;;8.13;;
35961;SDS011;22044;48.298;10.008;2023-09-08T01:28:37;11.63;;;9.00;;
35961;SDS011;22044;48.298;10.008;2023-09-08T01:31:25;11.20;;;9.57;;
35961;SDS011;22044;48.298;10.008;2023-09-08T01:34:11;13.73;;;9.00;;
35961;SDS011;22044;48.298;10.008;2023-09-08T01:36:57;10.70;;;9.07;;
35961;SDS011;22044;48.298;10.008;2023-09-08T01:39:46;11.07;;;9.43;;
35961;SDS011;22044;48.298;10.008;2023-09-08T01:42:33;11.90;;;10.23;;
35961;SDS011;22044;48.298;10.008;2023-09-08T01:45:18;12.27;;;10.03;;
35961;SDS011;22044;48.298;10.008;2023-09-08T01:48:05;10.70;;;9.60;;
35961;SDS011;22044;48.298;10.008;2023-09-08T01:50:50;12.73;;;10.00;;
35961;SDS011;22044;48.298;10.008;2023-09-08T01:53:36;10.47;;;9.37;;
35961;SDS011;22044;48.298;10.008;2023-09-08T01:56:22;10.97;;;9.87;;
35961;SDS011;22044;48.298;10.008;2023-09-08T01:59:09;12.20;;;9.83;;
35961;SDS011;22044;48.298;10.008;2023-09-08T02:01:54;11.03;;;9.90;;
35961;SDS011;22044;48.298;10.008;2023-09-08T02:04:40;14.37;;;9.73;;
35961;SDS011;22044;48.298;10.008;2023-09-08T02:07:26;13.30;;;10.47;;
35961;SDS011;22044;48.298;10.008;2023-09-08T02:10:11;14.20;;;10.37;;
35961;SDS011;22044;48.298;10.008;2023-09-08T02:12:57;13.00;;;10.57;;
35961;SDS011;22044;48.298;10.008;2023-09-08T02:15:44;12.53;;;10.73;;
35961;SDS011;22044;48.298;10.008;2023-09-08T02:18:30;14.03;;;10.50;;
35961;SDS011;22044;48.298;10.008;2023-09-08T02:21:16;14.27;;;11.97;;
35961;SDS011;22044;48.298;10.008;2023-09-08T02:24:01;12.30;;;11.03;;
35961;SDS011;22044;48.298;10.008;2023-09-08T02:26:48;13.63;;;11.10;;
35961;SDS011;22044;48.298;10.008;2023-09-08T02:29:34;12.70;;;11.47;;
35961;SDS011;22044;48.298;10.008;2023-09-08T02:32:21;23.50;;;12.50;;
35961;SDS011;22044;48.298;10.008;2023-09-08T02:35:08;14.63;;;10.83;;
35961;SDS011;22044;48.298;10.008;2023-09-08T02:37:54;13.23;;;11.93;;
35961;SDS011;22044;48.298;10.008;2023-09-08T02:40:39;14.23;;;12.73;;
35961;SDS011;22044;48.298;10.008;2023-09-08T02:43:25;15.27;;;11.93;;
35961;SDS011;22044;48.298;10.008;2023-09-08T02:46:11;13.87;;;10.90;;
35961;SDS011;22044;48.298;10.008;2023-09-08T02:48:58;12.83;;;11.40;;
35961;SDS011;22044;48.298;10.008;2023-09-08T02:51:45;13.03;;;11.40;;
35961;SDS011;22044;48.298;10.008;2023-09-08T02:54:31;12.87;;;11.47;;
35961;SDS011;22044;48.298;10.008;2023-09-08T02:57:17;11.87;;;10.77;;
35961;SDS011;22044;48.298;10.008;2023-09-08T03:00:02;13.13;;;11.83;;
35961;SDS011;22044;48.298;10.008;2023-09-08T03:02:49;13.53;;;12.13;;
35961;SDS011;22044;48.298;10.008;2023-09-08T03:05:36;14.33;;;12.07;;
35961;SDS011;22044;48.298;10.008;2023-09-08T03:08:22;13.80;;;12.40;;
35961;SDS011;22044;48.298;10.008;2023-09-08T03:11:08;14.53;;;12.33;;
35961;SDS011;22044;48.298;10.008;2023-09-08T03:13:53;16.40;;;12.20;;
35961;SDS011;22044;48.298;10.008;2023-09-08T03:16:39;14.97;;;13.27;;
35961;SDS011;22044;48.298;10.008;2023-09-08T03:19:24;13.83;;;12.37;;
35961;SDS011;22044;48.298;10.008;2023-09-08T03:22:11;14.10;;;12.70;;
35961;SDS011;22044;48.298;10.008;2023-09-08T03:24:57;13.73;;;12.33;;
35961;SDS011;22044;48.298;10.008;2023-09-08T03:27:43;15.73;;;12.23;;
35961;SDS011;22044;48.298;10.008;2023-09-08T03:30:28;13.83;;;12.37;;
35961;SDS011;22044;48.298;10.008;2023-09-08T03:33:14;17.63;;;12.53;;
35961;SDS011;22044;48.298;10.008;2023-09-08T03:36:00;13.83;;;12.30;;
35961;SDS011;22044;48.298;10.008;2023-09-08T03:38:48;17.03;;;11.33;;
35961;SDS011;22044;48.298;10.008;2023-09-08T03:41:34;13.77;;;11.27;;
35961;SDS011;22044;48.298;10.008;2023-09-08T03:44:19;13.37;;;11.40;;
35961;SDS011;22044;48.298;10.008;2023-09-08T03:47:05;13.87;;;12.03;;
35961;SDS011;22044;48.298;10.008;2023-09-08T03:49:51;13.73;;;12.43;;
35961;SDS011;22044;48.298;10.008;2023-09-08T03:52:36;15.70;;;12.00;;
35961;SDS011;22044;48.298;10.008;2023-09-08T03:55:23;15.93;;;12.30;;
35961;SDS011;22044;48.298;10.008;2023-09-08T03:58:10;13.47;;;11.57;;
35961;SDS011;22044;48.298;10.008;2023-09-08T04:00:55;13.23;;;11.93;;
35961;SDS011;22044;48.298;10.008;2023-09-08T04:03:41;13.70;;;12.30;;
35961;SDS011;22044;48.298;10.008;2023-09-08T04:06:27;14.47;;;11.93;;
35961;SDS011;22044;48.298;10.008;2023-09-08T04:09:14;13.40;;;12.00;;
35961;SDS011;22044;48.298;10.008;2023-09-08T04:12:01;13.97;;;12.17;;
35961;SDS011;22044;48.298;10.008;2023-09-08T04:14:48;17.30;;;12.43;;
35961;SDS011;22044;48.298;10.008;2023-09-08T04:17:33;13.00;;;11.57;;
35961;SDS011;22044;48.298;10.008;2023-09-08T04:20:20;13.80;;;11.43;;
35961;SDS011;22044;48.298;10.008;2023-09-08T04:23:05;16.40;;;10.80;;
35961;SDS011;22044;48.298;10.008;2023-09-08T04:25:51;14.43;;;11.63;;
35961;SDS011;22044;48.298;10.008;2023-09-08T04:28:39;11.30;;;10.20;;
35961;SDS011;22044;48.298;10.008;2023-09-08T04:31:25;11.73;;;10.53;;
35961;SDS011;22044;48.298;10.008;2023-09-08T04:34:11;12.60;;;11.30;;
35961;SDS011;22044;48.298;10.008;2023-09-08T04:36:57;12.33;;;11.00;;
35961;SDS011;22044;48.298;10.008;2023-09-08T04:39:42;12.43;;;11.13;;
35961;SDS011;22044;48.298;10.008;2023-09-08T04:42:29;14.77;;;12.23;;
35961;SDS011;22044;48.298;10.008;2023-09-08T04:45:17;13.93;;;12.47;;
35961;SDS011;22044;48.298;10.008;2023-09-08T04:48:03;14.03;;;12.53;;
35961;SDS011;22044;48.298;10.008;2023-09-08T04:50:49;14.27;;;12.63;;
35961;SDS011;22044;48.298;10.008;2023-09-08T04:53:36;16.23;;;11.73;;
35961;SDS011;22044;48.298;10.008;2023-09-08T04:56:22;13.37;;;11.40;;
35961;SDS011;22044;48.298;10.008;2023-09-08T04:59:07;15.00;;;12.07;;
35961;SDS011;22044;48.298;10.008;2023-09-08T05:01:54;12.93;;;11.57;;
35961;SDS011;22044;48.298;10.008;2023-09-08T05:04:40;16.13;;;11.97;;
35961;SDS011;22044;48.298;10.008;2023-09-08T05:07:27;13.40;;;11.70;;
35961;SDS011;22044;48.298;10.008;2023-09-08T05:10:13;13.00;;;11.30;;
35961;SDS011;22044;48.298;10.008;2023-09-08T05:12:58;12.27;;;11.00;;
35961;SDS011;22044;48.298;10.008;2023-09-08T05:15:45;12.60;;;11.23;;
35961;SDS011;22044;48.298;10.008;2023-09-08T05:18:34;13.17;;;11.60;;
35961;SDS011;22044;48.298;10.008;2023-09-08T05:21:20;13.63;;;11.53;;
35961;SDS011;22044;48.298;10.008;2023-09-08T05:24:06;13.00;;;11.50;;
35961;SDS011;22044;48.298;10.008;2023-09-08T05:26:53;14.23;;;12.47;;
35961;SDS011;22044;48.298;10.008;2023-09-08T05:29:39;13.17;;;11.87;;
35961;SDS011;22044;48.298;10.008;2023-09-08T05:32:24;13.43;;;12.03;;
35961;SDS011;22044;48.298;10.008;2023-09-08T05:35:12;21.93;;;14.63;;
35961;SDS011;22044;48.298;10.008;2023-09-08T05:37:59;17.37;;;13.57;;
35961;SDS011;22044;48.298;10.008;2023-09-08T05:40:45;15.17;;;13.37;;
35961;SDS011;22044;48.298;10.008;2023-09-08T05:43:30;15.67;;;13.93;;
35961;SDS011;22044;48.298;10.008;2023-09-08T05:46:17;14.57;;;13.10;;
35961;SDS011;22044;48.298;10.008;2023-09-08T05:49:02;14.07;;;12.57;;
35961;SDS011;22044;48.298;10.008;2023-09-08T05:51:51;15.03;;;13.53;;
35961;SDS011;22044;48.298;10.008;2023-09-08T05:54:37;16.03;;;13.17;;
35961;SDS011;22044;48.298;10.008;2023-09-08T05:57:23;15.80;;;14.03;;
35961;SDS011;22044;48.298;10.008;2023-09-08T06:00:08;16.00;;;14.40;;
35961;SDS011;22044;48.298;10.008;2023-09-08T06:03:02;19.57;;;14.40;;
35961;SDS011;22044;48.298;10.008;2023-09-08T06:05:49;16.47;;;13.03;;
35961;SDS011;22044;48.298;10.008;2023-09-08T06:08:36;15.77;;;12.13;;
35961;SDS011;22044;48.298;10.008;2023-09-08T06:11:23;16.27;;;13.10;;
35961;SDS011;22044;48.298;10.008;2023-09-08T06:14:08;12.27;;;10.97;;
35961;SDS011;22044;48.298;10.008;2023-09-08T06:16:58;16.60;;;12.00;;
35961;SDS011;22044;48.298;10.008;2023-09-08T06:19:44;11.20;;;10.10;;
35961;SDS011;22044;48.298;10.008;2023-09-08T06:22:30;14.30;;;11.17;;
35961;SDS011;22044;48.298;10.008;2023-09-08T06:25:18;14.50;;;12.33;;
35961;SDS011;22044;48.298;10.008;2023-09-08T06:28:04;13.23;;;11.47;;
35961;SDS011;22044;48.298;10.008;2023-09-08T06:30:51;12.87;;;11.53;;
35961;SDS011;22044;48.298;10.008;2023-09-08T06:33:36;13.07;;;11.67;;
35961;SDS011;22044;48.298;10.008;2023-09-08T06:36:23;14.13;;;12.70;;
35961;SDS011;22044;48.298;10.008;2023-09-08T06:39:10;15.00;;;13.00;;
35961;SDS011;22044;48.298;10.008;2023-09-08T06:41:58;12.47;;;11.17;;
35961;SDS011;22044;48.298;10.008;2023-09-08T06:44:44;13.77;;;12.37;;
35961;SDS011;22044;48.298;10.008;2023-09-08T06:50:39;16.00;;;13.03;;
35961;SDS011;22044;48.298;10.008;2023-09-08T06:59:43;13.83;;;12.40;;
35961;SDS011;22044;48.298;10.008;2023-09-08T07:02:28;11.57;;;10.40;;
35961;SDS011;22044;48.298;10.008;2023-09-08T07:05:14;12.43;;;11.23;;
35961;SDS011;22044;48.298;10.008;2023-09-08T07:08:00;16.33;;;11.13;;
35961;SDS011;22044;48.298;10.008;2023-09-08T07:10:51;14.80;;;11.77;;
35961;SDS011;22044;48.298;10.008;2023-09-08T07:13:38;15.03;;;11.67;;
35961;SDS011;22044;48.298;10.008;2023-09-08T07:16:25;13.73;;;9.83;;
35961;SDS011;22044;48.298;10.008;2023-09-08T07:19:10;13.17;;;11.77;;
35961;SDS011;22044;48.298;10.008;2023-09-08T07:21:57;11.93;;;10.83;;
35961;SDS011;22044;48.298;10.008;2023-09-08T07:24:43;14.60;;;13.17;;
35961;SDS011;22044;48.298;10.008;2023-09-08T07:27:31;15.77;;;13.43;;
35961;SDS011;22044;48.298;10.008;2023-09-08T07:30:16;12.70;;;11.40;;
35961;SDS011;22044;48.298;10.008;2023-09-08T07:33:04;13.33;;;11.27;;
35961;SDS011;22044;48.298;10.008;2023-09-08T07:35:49;13.87;;;12.43;;
35961;SDS011;22044;48.298;10.008;2023-09-08T07:38:35;14.13;;;12.73;;
35961;SDS011;22044;48.298;10.008;2023-09-08T07:41:21;15.03;;;11.40;;
35961;SDS011;22044;48.298;10.008;2023-09-08T07:44:07;14.27;;;12.10;;
35961;SDS011;22044;48.298;10.008;2023-09-08T07:46:54;12.43;;;11.13;;
35961;SDS011;22044;48.298;10.008;2023-09-08T07:49:45;13.03;;;11.67;;
35961;SDS011;22044;48.298;10.008;2023-09-08T07:52:31;16.10;;;13.43;;
35961;SDS011;22044;48.298;10.008;2023-09-08T07:55:18;14.70;;;12.90;;
35961;SDS011;22044;48.298;10.008;2023-09-08T07:58:07;12.53;;;11.33;;
35961;SDS011;22044;48.298;10.008;2023-09-08T08:00:54;15.13;;;13.53;;
35961;SDS011;22044;48.298;10.008;2023-09-08T08:03:39;13.07;;;11.87;;
35961;SDS011;22044;48.298;10.008;2023-09-08T08:06:26;14.80;;;13.40;;
35961;SDS011;22044;48.298;10.008;2023-09-08T08:09:12;13.33;;;12.03;;
35961;SDS011;22044;48.298;10.008;2023-09-08T08:11:58;14.90;;;13.40;;
35961;SDS011;22044;48.298;10.008;2023-09-08T08:14:46;13.38;;;12.07;;
35961;SDS011;22044;48.298;10.008;2023-09-08T08:17:31;14.18;;;12.60;;
35961;SDS011;22044;48.298;10.008;2023-09-08T08:20:17;17.05;;;12.50;;
35961;SDS011;22044;48.298;10.008;2023-09-08T08:23:04;13.43;;;12.13;;
35961;SDS011;22044;48.298;10.008;2023-09-08T08:25:51;16.70;;;12.23;;
35961;SDS011;22044;48.298;10.008;2023-09-08T08:28:36;11.77;;;10.57;;
35961;SDS011;22044;48.298;10.008;2023-09-08T08:31:22;15.15;;;11.85;;
35961;SDS011;22044;48.298;10.008;2023-09-08T08:34:09;13.77;;;12.27;;
35961;SDS011;22044;48.298;10.008;2023-09-08T08:36:55;14.23;;;12.80;;
35961;SDS011;22044;48.298;10.008;2023-09-08T08:39:45;16.05;;;12.05;;
35961;SDS011;22044;48.298;10.008;2023-09-08T08:42:32;16.77;;;11.77;;
35961;SDS011;22044;48.298;10.008;2023-09-08T08:45:19;14.38;;;12.82;;
35961;SDS011;22044;48.298;10.008;2023-09-08T08:48:09;16.33;;;11.95;;
35961;SDS011;22044;48.298;10.008;2023-09-08T08:50:56;11.32;;;10.20;;
35961;SDS011;22044;48.298;10.008;2023-09-08T08:53:43;14.55;;;11.43;;
35961;SDS011;22044;48.298;10.008;2023-09-08T08:56:30;13.85;;;12.43;;
35961;SDS011;22044;48.298;10.008;2023-09-08T08:59:17;13.98;;;12.57;;
35961;SDS011;22044;48.298;10.008;2023-09-08T09:02:03;13.80;;;11.95;;
35961;SDS011;22044;48.298;10.008;2023-09-08T09:04:51;13.77;;;12.07;;
35961;SDS011;22044;48.298;10.008;2023-09-08T09:07:37;12.95;;;11.20;;
35961;SDS011;22044;48.298;10.008;2023-09-08T09:10:23;13.30;;;11.73;;
35961;SDS011;22044;48.298;10.008;2023-09-08T09:13:10;13.13;;;11.80;;
35961;SDS011;22044;48.298;10.008;2023-09-08T09:15:58;13.45;;;11.82;;
35961;SDS011;22044;48.298;10.008;2023-09-08T09:18:54;13.02;;;11.75;;
35961;SDS011;22044;48.298;10.008;2023-09-08T09:21:42;13.00;;;11.73;;
35961;SDS011;22044;48.298;10.008;2023-09-08T09:24:30;14.27;;;12.27;;
35961;SDS011;22044;48.298;10.008;2023-09-08T09:27:18;13.00;;;11.10;;
35961;SDS011;22044;48.298;10.008;2023-09-08T09:30:08;10.25;;;9.25;;
35961;SDS011;22044;48.298;10.008;2023-09-08T09:32:59;10.27;;;8.93;;
35961;SDS011;22044;48.298;10.008;2023-09-08T09:35:46;10.40;;;9.32;;
35961;SDS011;22044;48.298;10.008;2023-09-08T09:38:33;12.18;;;9.90;;
35961;SDS011;22044;48.298;10.008;2023-09-08T09:41:20;11.82;;;9.88;;
35961;SDS011;22044;48.298;10.008;2023-09-08T09:44:08;10.63;;;9.60;;
35961;SDS011;22044;48.298;10.008;2023-09-08T09:46:56;10.35;;;8.63;;
35961;SDS011;22044;48.298;10.008;2023-09-08T09:49:42;9.18;;;8.32;;
35961;SDS011;22044;48.298;10.008;2023-09-08T09:52:29;8.90;;;8.10;;
35961;SDS011;22044;48.298;10.008;2023-09-08T09:55:15;12.90;;;8.20;;
35961;SDS011;22044;48.298;10.008;2023-09-08T09:58:01;9.57;;;8.02;;
35961;SDS011;22044;48.298;10.008;2023-09-08T10:00:49;10.30;;;7.90;;
35961;SDS011;22044;48.298;10.008;2023-09-08T10:03:37;10.00;;;7.57;;
35961;SDS011;22044;48.298;10.008;2023-09-08T10:06:23;9.75;;;8.00;;
35961;SDS011;22044;48.298;10.008;2023-09-08T10:09:10;15.05;;;8.40;;
35961;SDS011;22044;48.298;10.008;2023-09-08T10:11:58;8.57;;;7.78;;
35961;SDS011;22044;48.298;10.008;2023-09-08T10:14:48;9.70;;;8.23;;
35961;SDS011;22044;48.298;10.008;2023-09-08T10:17:39;7.15;;;6.55;;
35961;SDS011;22044;48.298;10.008;2023-09-08T10:20:31;9.10;;;7.50;;
35961;SDS011;22044;48.298;10.008;2023-09-08T10:23:20;10.32;;;9.23;;
35961;SDS011;22044;48.298;10.008;2023-09-08T10:26:09;8.25;;;7.53;;
35961;SDS011;22044;48.298;10.008;2023-09-08T10:28:56;7.65;;;6.93;;
35961;SDS011;22044;48.298;10.008;2023-09-08T10:31:42;8.38;;;7.47;;
35961;SDS011;22044;48.298;10.008;2023-09-08T10:34:29;10.13;;;8.27;;
35961;SDS011;22044;48.298;10.008;2023-09-08T10:37:22;9.85;;;8.75;;
35961;SDS011;22044;48.298;10.008;2023-09-08T10:40:22;10.52;;;8.35;;
35961;SDS011;22044;48.298;10.008;2023-09-08T10:43:10;7.78;;;7.07;;
35961;SDS011;22044;48.298;10.008;2023-09-08T10:45:56;8.73;;;7.93;;
35961;SDS011;22044;48.298;10.008;2023-09-08T10:48:42;9.35;;;8.35;;
35961;SDS011;22044;48.298;10.008;2023-09-08T10:51:30;8.68;;;7.13;;
35961;SDS011;22044;48.298;10.008;2023-09-08T10:57:27;8.45;;;7.57;;
35961;SDS011;22044;48.298;10.008;2023-09-08T11:00:17;8.30;;;7.50;;
35961;SDS011;22044;48.298;10.008;2023-09-08T11:03:04;11.57;;;9.07;;
35961;SDS011;22044;48.298;10.008;2023-09-08T11:05:50;8.98;;;7.25;;
35961;SDS011;22044;48.298;10.008;2023-09-08T11:08:36;11.38;;;7.55;;
35961;SDS011;22044;48.298;10.008;2023-09-08T11:11:24;8.45;;;6.95;;
35961;SDS011;22044;48.298;10.008;2023-09-08T11:14:10;8.75;;;7.57;;
35961;SDS011;22044;48.298;10.008;2023-09-08T11:16:57;6.82;;;6.13;;
35961;SDS011;22044;48.298;10.008;2023-09-08T11:19:44;8.55;;;7.78;;
35961;SDS011;22044;48.298;10.008;2023-09-08T11:22:30;6.28;;;5.68;;
35961;SDS011;22044;48.298;10.008;2023-09-08T11:25:16;7.40;;;6.43;;
35961;SDS011;22044;48.298;10.008;2023-09-08T11:28:03;7.07;;;6.20;;
35961;SDS011;22044;48.298;10.008;2023-09-08T11:30:49;7.75;;;6.88;;
35961;SDS011;22044;48.298;10.008;2023-09-08T11:33:35;6.35;;;5.75;;
35961;SDS011;22044;48.298;10.008;2023-09-08T11:36:23;7.47;;;6.75;;
35961;SDS011;22044;48.298;10.008;2023-09-08T11:39:09;7.50;;;6.78;;
35961;SDS011;22044;48.298;10.008;2023-09-08T11:41:55;7.72;;;7.00;;
35961;SDS011;22044;48.298;10.008;2023-09-08T11:44:42;7.63;;;6.80;;
35961;SDS011;22044;48.298;10.008;2023-09-08T11:47:28;10.52;;;7.65;;
35961;SDS011;22044;48.298;10.008;2023-09-08T11:50:14;7.57;;;6.50;;
35961;SDS011;22044;48.298;10.008;2023-09-08T11:53:01;7.97;;;6.20;;
35961;SDS011;22044;48.298;10.008;2023-09-08T11:55:47;8.48;;;7.60;;
35961;SDS011;22044;48.298;10.008;2023-09-08T11:58:33;7.15;;;6.55;;
35961;SDS011;22044;48.298;10.008;2023-09-08T12:01:20;10.48;;;7.40;;
35961;SDS011;22044;48.298;10.008;2023-09-08T12:04:06;7.22;;;6.30;;
35961;SDS011;22044;48.298;10.008;2023-09-08T12:07:01;7.10;;;6.50;;
35961;SDS011;22044;48.298;10.008;2023-09-08T12:09:46;6.68;;;6.07;;
35961;SDS011;22044;48.298;10.008;2023-09-08T12:12:32;8.07;;;7.30;;
35961;SDS011;22044;48.298;10.008;2023-09-08T12:15:29;6.88;;;6.22;;
35961;SDS011;22044;48.298;10.008;2023-09-08T12:18:18;7.93;;;6.38;;
35961;SDS011;22044;48.298;10.008;2023-09-08T12:21:04;9.57;;;6.72;;
35961;SDS011;22044;48.298;10.008;2023-09-08T12:23:50;7.07;;;6.47;;
35961;SDS011;22044;48.298;10.008;2023-09-08T12:26:37;7.70;;;7.00;;
35961;SDS011;22044;48.298;10.008;2023-09-08T12:29:22;8.10;;;7.40;;
35961;SDS011;22044;48.298;10.008;2023-09-08T12:32:11;6.68;;;5.97;;
35961;SDS011;22044;48.298;10.008;2023-09-08T12:34:59;6.03;;;5.45;;
35961;SDS011;22044;48.298;10.008;2023-09-08T12:37:47;7.00;;;6.40;;
35961;SDS011;22044;48.298;10.008;2023-09-08T12:40:37;7.10;;;6.43;;
35961;SDS011;22044;48.298;10.008;2023-09-08T12:43:22;9.20;;;6.30;;
35961;SDS011;22044;48.298;10.008;2023-09-08T12:46:08;8.45;;;6.70;;
35961;SDS011;22044;48.298;10.008;2023-09-08T12:48:54;8.85;;;7.20;;
35961;SDS011;22044;48.298;10.008;2023-09-08T12:51:41;7.47;;;6.85;;
35961;SDS011;22044;48.298;10.008;2023-09-08T12:54:27;7.88;;;6.72;;
35961;SDS011;22044;48.298;10.008;2023-09-08T12:57:13;6.25;;;5.65;;
35961;SDS011;22044;48.298;10.008;2023-09-08T12:59:59;7.07;;;6.20;;
35961;SDS011;22044;48.298;10.008;2023-09-08T13:02:45;8.43;;;6.47;;
35961;SDS011;22044;48.298;10.008;2023-09-08T13:05:30;8.40;;;6.15;;
35961;SDS011;22044;48.298;10.008;2023-09-08T13:08:17;9.15;;;6.28;;
35961;SDS011;22044;48.298;10.008;2023-09-08T13:11:03;6.80;;;6.20;;
35961;SDS011;22044;48.298;10.008;2023-09-08T13:13:49;7.22;;;6.30;;
35961;SDS011;22044;48.298;10.008;2023-09-08T13:16:34;6.88;;;6.13;;
35961;SDS011;22044;48.298;10.008;2023-09-08T13:19:20;6.47;;;5.90;;
35961;SDS011;22044;48.298;10.008;2023-09-08T13:22:05;6.00;;;5.53;;
35961;SDS011;22044;48.298;10.008;2023-09-08T13:24:53;6.38;;;5.78;;
35961;SDS011;22044;48.298;10.008;2023-09-08T13:27:39;8.20;;;5.83;;
35961;SDS011;22044;48.298;10.008;2023-09-08T13:30:25;6.28;;;5.70;;
35961;SDS011;22044;48.298;10.008;2023-09-08T13:33:11;6.60;;;5.65;;
35961;SDS011;22044;48.298;10.008;2023-09-08T13:35:57;6.13;;;5.47;;
35961;SDS011;22044;48.298;10.008;2023-09-08T13:38:43;9.30;;;5.93;;
35961;SDS011;22044;48.298;10.008;2023-09-08T13:44:22;8.23;;;6.00;;
35961;SDS011;22044;48.298;10.008;2023-09-08T13:47:08;6.88;;;5.95;;
35961;SDS011;22044;48.298;10.008;2023-09-08T13:49:54;8.75;;;5.93;;
35961;SDS011;22044;48.298;10.008;2023-09-08T13:52:40;6.85;;;5.45;;
35961;SDS011;22044;48.298;10.008;2023-09-08T13:55:25;6.53;;;5.90;;
35961;SDS011;22044;48.298;10.008;2023-09-08T13:58:11;9.52;;;6.07;;
35961;SDS011;22044;48.298;10.008;2023-09-08T14:00:58;7.43;;;6.68;;
35961;SDS011;22044;48.298;10.008;2023-09-08T14:03:43;9.18;;;5.80;;
35961;SDS011;22044;48.298;10.008;2023-09-08T14:06:29;8.70;;;6.30;;
35961;SDS011;22044;48.298;10.008;2023-09-08T14:09:14;6.25;;;5.65;;
35961;SDS011;22044;48.298;10.008;2023-09-08T14:12:00;6.97;;;5.75;;
35961;SDS011;22044;48.298;10.008;2023-09-08T14:14:46;8.20;;;6.05;;
35961;SDS011;22044;48.298;10.008;2023-09-08T14:17:33;6.78;;;6.13;;
35961;SDS011;22044;48.298;10.008;2023-09-08T14:20:19;6.32;;;5.70;;
35961;SDS011;22044;48.298;10.008;2023-09-08T14:23:04;6.88;;;6.18;;
35961;SDS011;22044;48.298;10.008;2023-09-08T14:25:51;7.68;;;6.50;;
35961;SDS011;22044;48.298;10.008;2023-09-08T14:28:37;8.98;;;6.10;;
35961;SDS011;22044;48.298;10.008;2023-09-08T14:31:23;6.07;;;5.55;;
35961;SDS011;22044;48.298;10.008;2023-09-08T14:34:10;8.18;;;6.32;;
35961;SDS011;22044;48.298;10.008;2023-09-08T14:36:55;6.05;;;5.53;;
35961;SDS011;22044;48.298;10.008;2023-09-08T14:39:41;8.10;;;6.00;;
35961;SDS011;22044;48.298;10.008;2023-09-08T14:42:26;7.05;;;6.13;;
35961;SDS011;22044;48.298;10.008;2023-09-08T14:45:13;9.07;;;6.45;;
35961;SDS011;22044;48.298;10.008;2023-09-08T14:47:58;8.38;;;5.50;;
35961;SDS011;22044;48.298;10.008;2023-09-08T14:50:45;6.18;;;5.53;;
35961;SDS011;22044;48.298;10.008;2023-09-08T14:53:31;9.95;;;6.22;;
35961;SDS011;22044;48.298;10.008;2023-09-08T14:56:17;6.35;;;5.80;;
35961;SDS011;22044;48.298;10.008;2023-09-08T14:59:02;7.25;;;5.90;;
35961;SDS011;22044;48.298;10.008;2023-09-08T15:01:48;6.13;;;5.57;;
35961;SDS011;22044;48.298;10.008;2023-09-08T15:04:34;7.32;;;5.85;;
35961;SDS011;22044;48.298;10.008;2023-09-08T15:07:21;7.75;;;5.80;;
35961;SDS011;22044;48.298;10.008;2023-09-08T15:10:07;7.60;;;5.57;;
35961;SDS011;22044;48.298;10.008;2023-09-08T15:12:53;6.68;;;5.65;;
35961;SDS011;22044;48.298;10.008;2023-09-08T15:15:39;7.78;;;5.47;;
35961;SDS011;22044;48.298;10.008;2023-09-08T15:18:25;6.40;;;5.80;;
35961;SDS011;22044;48.298;10.008;2023-09-08T15:21:10;6.97;;;6.38;;
35961;SDS011;22044;48.298;10.008;2023-09-08T15:23:57;7.22;;;5.78;;
35961;SDS011;22044;48.298;10.008;2023-09-08T15:26:43;7.18;;;6.38;;
35961;SDS011;22044;48.298;10.008;2023-09-08T15:29:29;8.00;;;5.65;;
35961;SDS011;22044;48.298;10.008;2023-09-08T15:32:15;8.13;;;6.10;;
35961;SDS011;22044;48.298;10.008;2023-09-08T15:35:00;6.20;;;5.60;;
35961;SDS011;22044;48.298;10.008;2023-09-08T15:37:46;6.72;;;6.05;;
35961;SDS011;22044;48.298;10.008;2023-09-08T15:40:33;9.60;;;5.97;;
35961;SDS011;22044;48.298;10.008;2023-09-08T15:43:19;9.63;;;6.25;;
35961;SDS011;22044;48.298;10.008;2023-09-08T15:46:04;6.50;;;5.65;;
35961;SDS011;22044;48.298;10.008;2023-09-08T15:48:50;6.00;;;5.30;;
35961;SDS011;22044;48.298;10.008;2023-09-08T15:51:36;5.75;;;5.18;;
35961;SDS011;22044;48.298;10.008;2023-09-08T15:54:21;6.15;;;5.55;;
35961;SDS011;22044;48.298;10.008;2023-09-08T15:57:08;6.05;;;5.43;;
35961;SDS011;22044;48.298;10.008;2023-09-08T15:59:53;6.18;;;5.43;;
35961;SDS011;22044;48.298;10.008;2023-09-08T16:02:39;6.03;;;5.47;;
35961;SDS011;22044;48.298;10.008;2023-09-08T16:05:25;6.90;;;5.68;;
35961;SDS011;22044;48.298;10.008;2023-09-08T16:08:10;7.28;;;5.60;;
35961;SDS011;22044;48.298;10.008;2023-09-08T16:10:56;7.05;;;5.90;;
35961;SDS011;22044;48.298;10.008;2023-09-08T16:13:45;6.35;;;5.75;;
35961;SDS011;22044;48.298;10.008;2023-09-08T16:16:31;6.00;;;5.30;;
35961;SDS011;22044;48.298;10.008;2023-09-08T16:19:16;7.60;;;5.28;;
35961;SDS011;22044;48.298;10.008;2023-09-08T16:22:02;7.57;;;5.50;;
35961;SDS011;22044;48.298;10.008;2023-09-08T16:24:51;5.20;;;4.70;;
35961;SDS011;22044;48.298;10.008;2023-09-08T16:27:36;7.97;;;5.82;;
35961;SDS011;22044;48.298;10.008;2023-09-08T16:30:24;7.40;;;5.40;;
35961;SDS011;22044;48.298;10.008;2023-09-08T16:33:09;8.88;;;5.40;;